sensor_id;sensor_type;location;lat;lon;timestamp;pressure;altitude;pressure_sealevel;temperature;humidity
31121;BME280;17770;45.966;13.632;2023-04-01T00:00:59;99339.22;;;16.97;58.51
31121;BME280;17770;45.966;13.632;2023-04-01T00:03:26;99364.28;;;16.98;58.72
31121;BME280;17770;45.966;13.632;2023-04-01T00:05:56;99354.00;;;16.96;58.75
31121;BME280;17770;45.966;13.632;2023-04-01T00:08:22;99354.84;;;16.97;58.38
31121;BME280;17770;45.966;13.632;2023-04-01T00:10:49;99353.25;;;16.94;58.51
31121;BME280;17770;45.966;13.632;2023-04-01T00:13:15;99350.56;;;16.96;58.25
31121;BME280;17770;45.966;13.632;2023-04-01T00:15:41;99347.13;;;16.95;58.77
31121;BME280;17770;45.966;13.632;2023-04-01T00:18:07;99346.28;;;16.94;58.55
31121;BME280;17770;45.966;13.632;2023-04-01T00:20:34;99350.66;;;16.94;58.72
31121;BME280;17770;45.966;13.632;2023-04-01T00:23:00;99357.56;;;16.95;58.38
31121;BME280;17770;45.966;13.632;2023-04-01T00:25:26;99371.50;;;16.94;58.74
31121;BME280;17770;45.966;13.632;2023-04-01T00:27:52;99375.78;;;16.95;58.25
31121;BME280;17770;45.966;13.632;2023-04-01T00:30:18;99374.09;;;16.94;58.67
31121;BME280;17770;45.966;13.632;2023-04-01T00:32:44;99355.16;;;16.92;58.48
31121;BME280;17770;45.966;13.632;2023-04-01T00:35:10;99354.22;;;16.93;58.61
31121;BME280;17770;45.966;13.632;2023-04-01T00:37:36;99336.09;;;16.91;58.36
31121;BME280;17770;45.966;13.632;2023-04-01T00:40:03;99339.66;;;16.90;58.53
31121;BME280;17770;45.966;13.632;2023-04-01T00:42:31;99337.97;;;16.89;58.37
31121;BME280;17770;45.966;13.632;2023-04-01T00:44:57;99353.50;;;16.91;58.61
31121;BME280;17770;45.966;13.632;2023-04-01T00:47:23;99356.22;;;16.89;58.41
31121;BME280;17770;45.966;13.632;2023-04-01T00:49:51;99357.88;;;16.90;58.32
31121;BME280;17770;45.966;13.632;2023-04-01T00:52:20;99360.50;;;16.90;58.12
31121;BME280;17770;45.966;13.632;2023-04-01T00:54:49;99355.41;;;16.89;58.41
31121;BME280;17770;45.966;13.632;2023-04-01T00:57:27;99353.72;;;16.88;58.74
31121;BME280;17770;45.966;13.632;2023-04-01T00:59:54;99360.69;;;16.87;58.40
31121;BME280;17770;45.966;13.632;2023-04-01T01:02:20;99357.28;;;16.87;58.36
31121;BME280;17770;45.966;13.632;2023-04-01T01:04:46;99354.66;;;16.87;58.56
31121;BME280;17770;45.966;13.632;2023-04-01T01:12:39;99347.78;;;16.86;58.21
31121;BME280;17770;45.966;13.632;2023-04-01T01:23:18;99340.06;;;16.84;58.24
31121;BME280;17770;45.966;13.632;2023-04-01T01:25:21;99334.97;;;16.83;58.84
31121;BME280;17770;45.966;13.632;2023-04-01T01:28:08;99329.88;;;16.81;58.13
31121;BME280;17770;45.966;13.632;2023-04-01T01:30:44;99315.91;;;16.82;58.82
31121;BME280;17770;45.966;13.632;2023-04-01T01:33:14;99310.00;;;16.80;58.59
31121;BME280;17770;45.966;13.632;2023-04-01T01:35:48;99309.88;;;16.82;58.05
31121;BME280;17770;45.966;13.632;2023-04-01T01:38:19;99309.88;;;16.82;58.65
31121;BME280;17770;45.966;13.632;2023-04-01T01:41:07;99301.25;;;16.81;58.73
31121;BME280;17770;45.966;13.632;2023-04-01T01:43:39;99293.53;;;16.80;58.63
31121;BME280;17770;45.966;13.632;2023-04-01T01:46:07;99277.91;;;16.80;58.54
31121;BME280;17770;45.966;13.632;2023-04-01T01:48:35;99284.88;;;16.79;58.47
31121;BME280;17770;45.966;13.632;2023-04-01T01:51:02;99279.69;;;16.79;58.41
31121;BME280;17770;45.966;13.632;2023-04-01T01:53:29;99277.91;;;16.80;58.20
31121;BME280;17770;45.966;13.632;2023-04-01T01:55:55;99269.25;;;16.79;58.31
31121;BME280;17770;45.966;13.632;2023-04-01T01:58:28;99268.47;;;16.79;58.62
31121;BME280;17770;45.966;13.632;2023-04-01T02:00:57;99265.00;;;16.78;58.13
31121;BME280;17770;45.966;13.632;2023-04-01T02:03:25;99268.53;;;16.77;58.73
31121;BME280;17770;45.966;13.632;2023-04-01T02:05:53;99259.81;;;16.78;58.49
31121;BME280;17770;45.966;13.632;2023-04-01T02:08:23;99260.66;;;16.79;57.96
31121;BME280;17770;45.966;13.632;2023-04-01T02:10:56;99262.41;;;16.78;58.52
31121;BME280;17770;45.966;13.632;2023-04-01T02:13:28;99256.34;;;16.78;58.25
31121;BME280;17770;45.966;13.632;2023-04-01T02:15:56;99254.72;;;16.77;58.46
31121;BME280;17770;45.966;13.632;2023-04-01T02:18:24;99246.06;;;16.76;58.37
31121;BME280;17770;45.966;13.632;2023-04-01T02:20:51;99251.25;;;16.76;58.41
31121;BME280;17770;45.966;13.632;2023-04-01T02:23:17;99254.81;;;16.75;57.94
31121;BME280;17770;45.966;13.632;2023-04-01T02:25:43;99254.81;;;16.75;58.41
31121;BME280;17770;45.966;13.632;2023-04-01T02:28:10;99256.69;;;16.73;58.17
31121;BME280;17770;45.966;13.632;2023-04-01T02:30:38;99255.84;;;16.73;58.14
31121;BME280;17770;45.966;13.632;2023-04-01T02:33:06;99262.88;;;16.72;58.32
31121;BME280;17770;45.966;13.632;2023-04-01T02:35:35;99264.50;;;16.73;57.99
31121;BME280;17770;45.966;13.632;2023-04-01T02:38:02;99259.41;;;16.72;58.13
31121;BME280;17770;45.966;13.632;2023-04-01T02:40:29;99263.66;;;16.73;58.12
31121;BME280;17770;45.966;13.632;2023-04-01T02:42:55;99265.47;;;16.72;58.05
31121;BME280;17770;45.966;13.632;2023-04-01T02:45:21;99264.50;;;16.73;57.94
31121;BME280;17770;45.966;13.632;2023-04-01T02:47:47;99276.81;;;16.71;57.92
31121;BME280;17770;45.966;13.632;2023-04-01T02:50:12;99275.25;;;16.69;58.03
31121;BME280;17770;45.966;13.632;2023-04-01T02:52:38;99276.06;;;16.69;58.46
31121;BME280;17770;45.966;13.632;2023-04-01T02:55:05;99285.69;;;16.69;57.89
31121;BME280;17770;45.966;13.632;2023-04-01T02:57:31;99291.69;;;16.69;58.31
31121;BME280;17770;45.966;13.632;2023-04-01T02:59:57;99292.53;;;16.70;58.34
31121;BME280;17770;45.966;13.632;2023-04-01T03:02:23;99286.50;;;16.69;57.96
31121;BME280;17770;45.966;13.632;2023-04-01T03:04:49;99290.78;;;16.70;58.53
31121;BME280;17770;45.966;13.632;2023-04-01T03:07:15;99297.75;;;16.70;58.20
31121;BME280;17770;45.966;13.632;2023-04-01T03:09:41;99296.22;;;16.67;58.35
31121;BME280;17770;45.966;13.632;2023-04-01T03:12:07;99297.84;;;16.68;58.33
31121;BME280;17770;45.966;13.632;2023-04-01T03:14:43;99285.78;;;16.67;58.43
31121;BME280;17770;45.966;13.632;2023-04-01T03:17:09;99282.34;;;16.67;58.36
31121;BME280;17770;45.966;13.632;2023-04-01T03:19:35;99279.84;;;16.65;58.33
31121;BME280;17770;45.966;13.632;2023-04-01T03:22:05;99279.75;;;16.67;58.05
31121;BME280;17770;45.966;13.632;2023-04-01T03:24:31;99279.00;;;16.65;57.95
31121;BME280;17770;45.966;13.632;2023-04-01T03:26:57;99273.81;;;16.65;58.09
31121;BME280;17770;45.966;13.632;2023-04-01T03:29:23;99285.88;;;16.66;58.10
31121;BME280;17770;45.966;13.632;2023-04-01T03:31:49;99289.44;;;16.65;57.90
31121;BME280;17770;45.966;13.632;2023-04-01T03:34:15;99296.41;;;16.64;58.23
31121;BME280;17770;45.966;13.632;2023-04-01T03:36:41;99293.91;;;16.63;58.41
31121;BME280;17770;45.966;13.632;2023-04-01T03:39:07;99296.41;;;16.64;58.18
31121;BME280;17770;45.966;13.632;2023-04-01T03:41:40;99306.81;;;16.64;58.04
31121;BME280;17770;45.966;13.632;2023-04-01T03:44:06;99311.22;;;16.64;58.47
31121;BME280;17770;45.966;13.632;2023-04-01T03:46:32;99308.72;;;16.62;57.87
31121;BME280;17770;45.966;13.632;2023-04-01T03:48:58;99307.16;;;16.60;57.90
31121;BME280;17770;45.966;13.632;2023-04-01T03:51:24;99304.44;;;16.61;57.88
31121;BME280;17770;45.966;13.632;2023-04-01T03:53:50;99309.63;;;16.61;58.08
31121;BME280;17770;45.966;13.632;2023-04-01T03:56:16;99314.03;;;16.61;57.90
31121;BME280;17770;45.966;13.632;2023-04-01T03:58:42;99318.41;;;16.60;57.70
31121;BME280;17770;45.966;13.632;2023-04-01T04:01:19;99315.91;;;16.59;58.33
31121;BME280;17770;45.966;13.632;2023-04-01T04:03:47;99321.13;;;16.59;58.00
31121;BME280;17770;45.966;13.632;2023-04-01T04:06:15;99323.00;;;16.57;57.75
31121;BME280;17770;45.966;13.632;2023-04-01T04:08:41;99323.81;;;16.57;57.91
31121;BME280;17770;45.966;13.632;2023-04-01T04:11:07;99329.16;;;16.56;58.25
31121;BME280;17770;45.966;13.632;2023-04-01T04:13:35;99322.16;;;16.56;57.71
31121;BME280;17770;45.966;13.632;2023-04-01T04:16:02;99326.53;;;16.56;57.91
31121;BME280;17770;45.966;13.632;2023-04-01T04:18:28;99331.75;;;16.56;58.45
31121;BME280;17770;45.966;13.632;2023-04-01T04:20:55;99330.91;;;16.55;57.96
31121;BME280;17770;45.966;13.632;2023-04-01T04:23:21;99332.66;;;16.55;58.32
31121;BME280;17770;45.966;13.632;2023-04-01T04:26:00;99333.63;;;16.54;58.11
31121;BME280;17770;45.966;13.632;2023-04-01T04:28:28;99332.78;;;16.53;58.31
31121;BME280;17770;45.966;13.632;2023-04-01T04:30:56;99338.94;;;16.52;57.87
31121;BME280;17770;45.966;13.632;2023-04-01T04:33:22;99337.13;;;16.53;58.17
31121;BME280;17770;45.966;13.632;2023-04-01T04:35:49;99345.06;;;16.51;58.30
31121;BME280;17770;45.966;13.632;2023-04-01T04:38:15;99347.66;;;16.51;57.92
31121;BME280;17770;45.966;13.632;2023-04-01T04:40:41;99346.84;;;16.51;57.81
31121;BME280;17770;45.966;13.632;2023-04-01T04:43:12;99343.41;;;16.50;58.00
31121;BME280;17770;45.966;13.632;2023-04-01T04:45:39;99346.00;;;16.50;58.16
31121;BME280;17770;45.966;13.632;2023-04-01T04:48:10;99349.56;;;16.49;58.09
31121;BME280;17770;45.966;13.632;2023-04-01T04:50:37;99346.97;;;16.49;58.02
31121;BME280;17770;45.966;13.632;2023-04-01T04:53:02;99349.56;;;16.49;58.16
31121;BME280;17770;45.966;13.632;2023-04-01T04:55:30;99350.38;;;16.50;58.31
31121;BME280;17770;45.966;13.632;2023-04-01T04:58:28;99352.16;;;16.49;58.18
31121;BME280;17770;45.966;13.632;2023-04-01T05:00:55;99354.03;;;16.47;57.63
31121;BME280;17770;45.966;13.632;2023-04-01T05:03:27;99361.84;;;16.47;58.00
31121;BME280;17770;45.966;13.632;2023-04-01T05:05:53;99359.97;;;16.49;57.98
31121;BME280;17770;45.966;13.632;2023-04-01T05:08:19;99359.25;;;16.47;57.93
31121;BME280;17770;45.966;13.632;2023-04-01T05:10:46;99361.00;;;16.47;58.06
31121;BME280;17770;45.966;13.632;2023-04-01T05:13:12;99364.44;;;16.47;57.94
31121;BME280;17770;45.966;13.632;2023-04-01T05:15:40;99360.25;;;16.45;57.92
31121;BME280;17770;45.966;13.632;2023-04-01T05:18:06;99367.97;;;16.46;57.82
31121;BME280;17770;45.966;13.632;2023-04-01T05:20:32;99367.31;;;16.43;58.15
31121;BME280;17770;45.966;13.632;2023-04-01T05:22:59;99373.38;;;16.43;57.95
31121;BME280;17770;45.966;13.632;2023-04-01T05:25:25;99382.84;;;16.44;58.01
31121;BME280;17770;45.966;13.632;2023-04-01T05:27:51;99375.13;;;16.43;57.69
31121;BME280;17770;45.966;13.632;2023-04-01T05:30:17;99377.72;;;16.43;58.13
31121;BME280;17770;45.966;13.632;2023-04-01T05:33:10;99387.22;;;16.44;57.41
31121;BME280;17770;45.966;13.632;2023-04-01T05:35:36;99388.97;;;16.43;57.82
31121;BME280;17770;45.966;13.632;2023-04-01T05:38:03;99389.09;;;16.42;57.91
31121;BME280;17770;45.966;13.632;2023-04-01T05:40:29;99386.47;;;16.42;57.63
31121;BME280;17770;45.966;13.632;2023-04-01T05:42:55;99385.63;;;16.41;57.49
31121;BME280;17770;45.966;13.632;2023-04-01T05:45:21;99394.28;;;16.42;57.85
31121;BME280;17770;45.966;13.632;2023-04-01T05:48:05;99400.44;;;16.41;57.58
31121;BME280;17770;45.966;13.632;2023-04-01T05:50:39;99405.66;;;16.41;58.04
31121;BME280;17770;45.966;13.632;2023-04-01T05:53:05;99400.56;;;16.39;57.59
31121;BME280;17770;45.966;13.632;2023-04-01T05:55:31;99399.59;;;16.40;57.75
31121;BME280;17770;45.966;13.632;2023-04-01T05:57:57;99403.03;;;16.41;57.96
31121;BME280;17770;45.966;13.632;2023-04-01T06:00:23;99416.16;;;16.39;58.04
31121;BME280;17770;45.966;13.632;2023-04-01T06:02:49;99407.50;;;16.39;57.73
31121;BME280;17770;45.966;13.632;2023-04-01T06:05:21;99410.13;;;16.39;58.04
31121;BME280;17770;45.966;13.632;2023-04-01T06:07:47;99421.44;;;16.38;58.04
31121;BME280;17770;45.966;13.632;2023-04-01T06:10:16;99423.13;;;16.39;58.07
31121;BME280;17770;45.966;13.632;2023-04-01T06:20:47;99432.81;;;16.37;57.97
31121;BME280;17770;45.966;13.632;2023-04-01T06:25:48;99429.47;;;16.35;57.64
31121;BME280;17770;45.966;13.632;2023-04-01T06:30:43;99436.34;;;16.36;57.83
31121;BME280;17770;45.966;13.632;2023-04-01T06:33:28;99440.72;;;16.35;57.19
31121;BME280;17770;45.966;13.632;2023-04-01T06:58:18;99458.19;;;16.33;57.22
31121;BME280;17770;45.966;13.632;2023-04-01T07:00:45;99471.94;;;16.35;57.88
31121;BME280;17770;45.966;13.632;2023-04-01T07:05:44;99470.41;;;16.33;57.23
31121;BME280;17770;45.966;13.632;2023-04-01T07:08:11;99470.41;;;16.33;57.28
31121;BME280;17770;45.966;13.632;2023-04-01T07:13:53;99481.63;;;16.33;57.25
31121;BME280;17770;45.966;13.632;2023-04-01T07:16:23;99477.25;;;16.34;57.47
31121;BME280;17770;45.966;13.632;2023-04-01T07:18:52;99471.19;;;16.33;57.25
31121;BME280;17770;45.966;13.632;2023-04-01T07:21:29;99473.69;;;16.35;57.09
31121;BME280;17770;45.966;13.632;2023-04-01T07:24:00;99468.50;;;16.35;57.42
31121;BME280;17770;45.966;13.632;2023-04-01T07:26:38;99469.34;;;16.35;57.17
31121;BME280;17770;45.966;13.632;2023-04-01T07:29:11;99465.09;;;16.34;57.05
31121;BME280;17770;45.966;13.632;2023-04-01T07:34:33;99459.88;;;16.34;57.04
31121;BME280;17770;45.966;13.632;2023-04-01T07:37:51;99471.94;;;16.35;57.12
31121;BME280;17770;45.966;13.632;2023-04-01T07:50:28;99487.66;;;16.34;57.22
31121;BME280;17770;45.966;13.632;2023-04-01T08:03:33;99491.09;;;16.34;57.34
31121;BME280;17770;45.966;13.632;2023-04-01T08:08:56;99497.13;;;16.35;57.29
31121;BME280;17770;45.966;13.632;2023-04-01T08:17:27;99503.16;;;16.35;57.54
31121;BME280;17770;45.966;13.632;2023-04-01T08:22:34;99507.41;;;16.36;57.06
31121;BME280;17770;45.966;13.632;2023-04-01T08:25:13;99499.63;;;16.36;57.08
31121;BME280;17770;45.966;13.632;2023-04-01T08:27:41;99497.00;;;16.36;57.32
31121;BME280;17770;45.966;13.632;2023-04-01T08:30:20;99497.97;;;16.35;57.47
31121;BME280;17770;45.966;13.632;2023-04-01T08:32:56;99490.06;;;16.37;57.63
31121;BME280;17770;45.966;13.632;2023-04-01T08:38:01;99492.53;;;16.38;57.02
31121;BME280;17770;45.966;13.632;2023-04-01T08:48:43;99500.97;;;16.42;57.01
31121;BME280;17770;45.966;13.632;2023-04-01T09:07:45;99518.00;;;16.47;57.49
31121;BME280;17770;45.966;13.632;2023-04-01T09:20:38;99523.84;;;16.51;57.64
31121;BME280;17770;45.966;13.632;2023-04-01T09:39:50;99521.66;;;16.57;58.01
31121;BME280;17770;45.966;13.632;2023-04-01T09:53:34;99509.06;;;16.64;57.15
31121;BME280;17770;45.966;13.632;2023-04-01T10:06:09;99514.47;;;16.73;57.60
31121;BME280;17770;45.966;13.632;2023-04-01T11:13:43;99481.16;;;17.15;59.91
31121;BME280;17770;45.966;13.632;2023-04-01T11:27:14;99469.16;;;17.25;60.08
31121;BME280;17770;45.966;13.632;2023-04-01T11:37:35;99466.84;;;17.33;60.75
31121;BME280;17770;45.966;13.632;2023-04-01T11:40:35;99461.41;;;17.36;60.82
31121;BME280;17770;45.966;13.632;2023-04-01T11:52:32;99448.56;;;17.45;60.77
31121;BME280;17770;45.966;13.632;2023-04-01T11:58:08;99454.28;;;17.50;61.26
31121;BME280;17770;45.966;13.632;2023-04-01T12:08:50;99445.69;;;17.61;61.27
31121;BME280;17770;45.966;13.632;2023-04-01T12:11:26;99444.53;;;17.65;61.81
31121;BME280;17770;45.966;13.632;2023-04-01T12:18:50;99436.25;;;17.71;62.45
31121;BME280;17770;45.966;13.632;2023-04-01T12:21:38;99435.09;;;17.75;61.86
31121;BME280;17770;45.966;13.632;2023-04-01T12:32:05;99430.88;;;17.85;62.89
31121;BME280;17770;45.966;13.632;2023-04-01T12:42:36;99420.47;;;17.96;63.05
31121;BME280;17770;45.966;13.632;2023-04-01T13:03:34;99401.53;;;18.16;61.73
31121;BME280;17770;45.966;13.632;2023-04-01T13:16:28;99401.41;;;18.29;61.95
31121;BME280;17770;45.966;13.632;2023-04-01T13:19:03;99394.31;;;18.31;60.99
31121;BME280;17770;45.966;13.632;2023-04-01T13:24:05;99387.06;;;18.34;61.05
31121;BME280;17770;45.966;13.632;2023-04-01T13:26:42;99398.94;;;18.38;60.94
31121;BME280;17770;45.966;13.632;2023-04-01T13:29:56;99394.34;;;18.42;60.91
31121;BME280;17770;45.966;13.632;2023-04-01T13:47:57;99388.28;;;18.63;60.74
31121;BME280;17770;45.966;13.632;2023-04-01T14:06:13;99377.81;;;18.85;61.17
31121;BME280;17770;45.966;13.632;2023-04-01T14:21:08;99366.84;;;19.02;62.36
31121;BME280;17770;45.966;13.632;2023-04-01T14:23:42;99368.28;;;19.06;61.90
31121;BME280;17770;45.966;13.632;2023-04-01T14:29:02;99364.34;;;19.12;62.76
31121;BME280;17770;45.966;13.632;2023-04-01T14:36:43;99368.00;;;19.20;62.54
31121;BME280;17770;45.966;13.632;2023-04-01T14:41:47;99372.00;;;19.24;63.07
31121;BME280;17770;45.966;13.632;2023-04-01T14:44:28;99373.44;;;19.28;63.54
31121;BME280;17770;45.966;13.632;2023-04-01T14:47:42;99368.69;;;19.33;64.46
31121;BME280;17770;45.966;13.632;2023-04-01T14:49:49;99365.97;;;19.35;64.11
31121;BME280;17770;45.966;13.632;2023-04-01T14:52:27;99366.53;;;19.38;65.21
31121;BME280;17770;45.966;13.632;2023-04-01T14:54:54;99372.22;;;19.43;67.21
31121;BME280;17770;45.966;13.632;2023-04-01T15:12:55;99358.97;;;19.56;65.02
31121;BME280;17770;45.966;13.632;2023-04-01T15:20:44;99366.44;;;19.61;64.37
31121;BME280;17770;45.966;13.632;2023-04-01T15:39:20;99389.94;;;19.72;64.09
31121;BME280;17770;45.966;13.632;2023-04-01T15:47:01;99401.78;;;19.76;64.27
31121;BME280;17770;45.966;13.632;2023-04-01T15:49:43;99399.75;;;19.79;64.86
31121;BME280;17770;45.966;13.632;2023-04-01T15:52:18;99403.34;;;19.78;65.54
31121;BME280;17770;45.966;13.632;2023-04-01T16:04:58;99409.03;;;19.83;66.16
31121;BME280;17770;45.966;13.632;2023-04-01T16:12:46;99421.16;;;19.84;65.52
31121;BME280;17770;45.966;13.632;2023-04-01T16:23:17;99429.72;;;19.86;65.98
31121;BME280;17770;45.966;13.632;2023-04-01T16:25:45;99426.13;;;19.87;66.25
31121;BME280;17770;45.966;13.632;2023-04-01T16:28:29;99421.84;;;19.86;66.81
31121;BME280;17770;45.966;13.632;2023-04-01T16:31:00;99421.84;;;19.86;66.32
31121;BME280;17770;45.966;13.632;2023-04-01T16:41:36;99432.44;;;19.85;67.61
31121;BME280;17770;45.966;13.632;2023-04-01T16:44:16;99443.72;;;19.85;68.94
31121;BME280;17770;45.966;13.632;2023-04-01T16:46:46;99441.13;;;19.85;70.46
31121;BME280;17770;45.966;13.632;2023-04-01T16:49:36;99441.94;;;19.86;71.94
31121;BME280;17770;45.966;13.632;2023-04-01T16:52:11;99433.38;;;19.84;72.98
31121;BME280;17770;45.966;13.632;2023-04-01T16:57:19;99427.34;;;19.83;72.31
31121;BME280;17770;45.966;13.632;2023-04-01T17:02:23;99420.56;;;19.81;72.03
31121;BME280;17770;45.966;13.632;2023-04-01T17:04:57;99422.47;;;19.79;72.78
31121;BME280;17770;45.966;13.632;2023-04-01T17:31:20;99441.03;;;19.76;70.80
31121;BME280;17770;45.966;13.632;2023-04-01T17:34:04;99448.91;;;19.76;70.11
31121;BME280;17770;45.966;13.632;2023-04-01T17:44:12;99458.66;;;19.74;68.87
31121;BME280;17770;45.966;13.632;2023-04-01T17:52:10;99472.81;;;19.71;68.95
31121;BME280;17770;45.966;13.632;2023-04-01T17:54:47;99471.97;;;19.71;69.37
31121;BME280;17770;45.966;13.632;2023-04-01T18:00:54;99488.91;;;19.67;68.84
31121;BME280;17770;45.966;13.632;2023-04-01T18:23:51;99514.72;;;19.60;66.90
31121;BME280;17770;45.966;13.632;2023-04-01T18:26:24;99514.81;;;19.59;66.85
31121;BME280;17770;45.966;13.632;2023-04-01T18:29:04;99516.63;;;19.58;66.72
31121;BME280;17770;45.966;13.632;2023-04-01T18:31:43;99523.63;;;19.58;66.07
31121;BME280;17770;45.966;13.632;2023-04-01T18:34:15;99528.88;;;19.58;66.20
31121;BME280;17770;45.966;13.632;2023-04-01T18:42:03;99541.22;;;19.56;66.42
31121;BME280;17770;45.966;13.632;2023-04-01T18:44:44;99543.13;;;19.54;66.23
31121;BME280;17770;45.966;13.632;2023-04-01T18:50:02;99532.78;;;19.52;65.83
31121;BME280;17770;45.966;13.632;2023-04-01T18:52:33;99531.97;;;19.52;65.24
31121;BME280;17770;45.966;13.632;2023-04-01T18:57:27;99533.88;;;19.50;65.48
31121;BME280;17770;45.966;13.632;2023-04-01T19:00:04;99544.34;;;19.50;65.24
31121;BME280;17770;45.966;13.632;2023-04-01T19:05:04;99533.16;;;19.48;65.22
31121;BME280;17770;45.966;13.632;2023-04-01T19:10:17;99530.78;;;19.44;64.86
31121;BME280;17770;45.966;13.632;2023-04-01T19:12:55;99534.38;;;19.43;64.36
31121;BME280;17770;45.966;13.632;2023-04-01T19:26:09;99564.31;;;19.39;62.93
31121;BME280;17770;45.966;13.632;2023-04-01T19:36:29;99577.88;;;19.33;62.53
31121;BME280;17770;45.966;13.632;2023-04-01T19:41:52;99573.59;;;19.32;62.20
31121;BME280;17770;45.966;13.632;2023-04-01T19:44:26;99572.88;;;19.30;62.25
31121;BME280;17770;45.966;13.632;2023-04-01T19:52:36;99580.91;;;19.27;61.63
31121;BME280;17770;45.966;13.632;2023-04-01T20:05:16;99589.25;;;19.21;60.17
31121;BME280;17770;45.966;13.632;2023-04-01T20:07:47;99592.81;;;19.20;60.79
31121;BME280;17770;45.966;13.632;2023-04-01T20:10:18;99592.81;;;19.20;60.05
31121;BME280;17770;45.966;13.632;2023-04-01T20:17:58;99597.47;;;19.17;59.88
31121;BME280;17770;45.966;13.632;2023-04-01T20:20:29;99600.19;;;19.15;60.05
31121;BME280;17770;45.966;13.632;2023-04-01T20:23:39;99615.03;;;19.15;60.69
31121;BME280;17770;45.966;13.632;2023-04-01T20:26:19;99610.72;;;19.14;61.21
31121;BME280;17770;45.966;13.632;2023-04-01T20:31:29;99610.84;;;19.12;60.76
31121;BME280;17770;45.966;13.632;2023-04-01T20:44:55;99618.22;;;19.07;60.88
31121;BME280;17770;45.966;13.632;2023-04-01T20:52:40;99630.00;;;19.02;60.75
31121;BME280;17770;45.966;13.632;2023-04-01T20:57:50;99629.16;;;19.01;60.21
31121;BME280;17770;45.966;13.632;2023-04-01T21:03:02;99631.03;;;18.99;60.26
31121;BME280;17770;45.966;13.632;2023-04-01T21:05:40;99629.38;;;18.98;59.93
31121;BME280;17770;45.966;13.632;2023-04-01T21:16:10;99634.97;;;18.94;59.87
31121;BME280;17770;45.966;13.632;2023-04-01T21:21:19;99645.53;;;18.92;59.91
31121;BME280;17770;45.966;13.632;2023-04-01T21:50:08;99647.88;;;18.84;59.86
31121;BME280;17770;45.966;13.632;2023-04-01T21:58:16;99649.97;;;18.79;59.76
31121;BME280;17770;45.966;13.632;2023-04-01T22:08:50;99653.78;;;18.75;59.95
31121;BME280;17770;45.966;13.632;2023-04-01T22:11:30;99657.25;;;18.76;59.86
31121;BME280;17770;45.966;13.632;2023-04-01T22:14:05;99655.56;;;18.75;59.65
31121;BME280;17770;45.966;13.632;2023-04-01T22:30:12;99660.41;;;18.68;59.81
31121;BME280;17770;45.966;13.632;2023-04-01T22:40:46;99652.81;;;18.65;59.47
31121;BME280;17770;45.966;13.632;2023-04-01T22:43:25;99651.97;;;18.65;59.73
31121;BME280;17770;45.966;13.632;2023-04-01T22:48:38;99657.31;;;18.63;59.62
31121;BME280;17770;45.966;13.632;2023-04-01T22:54:15;99658.25;;;18.62;59.68
31121;BME280;17770;45.966;13.632;2023-04-01T22:56:55;99654.06;;;18.60;59.68
31121;BME280;17770;45.966;13.632;2023-04-01T23:02:09;99661.09;;;18.59;59.77
31121;BME280;17770;45.966;13.632;2023-04-01T23:04:38;99664.63;;;18.58;59.60
31121;BME280;17770;45.966;13.632;2023-04-01T23:07:19;99672.47;;;18.58;59.96
31121;BME280;17770;45.966;13.632;2023-04-01T23:09:47;99669.03;;;18.58;59.50
31121;BME280;17770;45.966;13.632;2023-04-01T23:12:14;99672.59;;;18.57;59.79
31121;BME280;17770;45.966;13.632;2023-04-01T23:14:46;99669.97;;;18.57;59.87
31121;BME280;17770;45.966;13.632;2023-04-01T23:17:22;99666.53;;;18.56;59.81
31121;BME280;17770;45.966;13.632;2023-04-01T23:25:12;99672.81;;;18.54;59.71
31121;BME280;17770;45.966;13.632;2023-04-01T23:27:51;99679.81;;;18.53;59.69
31121;BME280;17770;45.966;13.632;2023-04-01T23:30:52;99680.66;;;18.54;59.88
31121;BME280;17770;45.966;13.632;2023-04-01T23:38:23;99680.88;;;18.51;59.71
31121;BME280;17770;45.966;13.632;2023-04-01T23:40:50;99678.28;;;18.51;59.87
31121;BME280;17770;45.966;13.632;2023-04-01T23:43:22;99685.25;;;18.50;59.65
31121;BME280;17770;45.966;13.632;2023-04-01T23:45:49;99681.00;;;18.49;59.45
31121;BME280;17770;45.966;13.632;2023-04-01T23:48:15;99687.88;;;18.50;59.68
31121;BME280;17770;45.966;13.632;2023-04-01T23:50:41;99684.41;;;18.50;59.60
31121;BME280;17770;45.966;13.632;2023-04-01T23:53:23;99679.31;;;18.48;59.75
31121;BME280;17770;45.966;13.632;2023-04-01T23:55:51;99673.34;;;18.46;59.46
